ヤクーツク の空港の天気 - METARとTAF

ヤクーツク空港 ( UEEE / YKS ) - ロシア ヤクーツク
飛行場実況気象(Metar)
観測時間11/20 12:30 YAKT (11/20 03:30 UTC)
風向・風速南西 3m/s
視程3200m
天気現象もや
なし
気温-33℃
湿度74%
気圧1006hPa
METARUEEE 200330Z 22003MPS 3200 BR NSC M33/M36 Q1006 R23L/490150 NOSIG RMK QFE746
過去の天気等 Google飛行場航空写真 Wunderground天気予報

過去48時間のMETAR

飛行場予報(TAF)
発表時間: 11/20 11:00 YAKT (11/20 02:00 UTC)
予報対象時間: 20日12時 YAKT ~ 21日18時 YAKT
風向・風速西南西 3m/s
視程3,200m
天気現象弱い雪 もや
全天の4割程度の雲 雲底高度 460m
全天の8割程度の雲 雲底高度 2,130m
20日12時 YAKT ~ 20日21時 YAKT に一時的に
視程400m
天気現象
全天を覆う雲 鉛直視程 120m
TAF UEEE 200200Z 2003/2109 24003MPS 3200 -SN BR SCT015 BKN070
TEMPO 2003/2012 0400 FG VV004